sensor_id;sensor_type;location;lat;lon;timestamp;P1;durP1;ratioP1;P2;durP2;ratioP2
40314;SDS011;26021;45.640;11.302;2024-01-15T00:00:32;65.30;;;41.42;;
40314;SDS011;26021;45.640;11.302;2024-01-15T00:02:58;66.65;;;41.30;;
40314;SDS011;26021;45.640;11.302;2024-01-15T00:05:24;67.68;;;42.53;;
40314;SDS011;26021;45.640;11.302;2024-01-15T00:07:49;65.43;;;42.55;;
40314;SDS011;26021;45.640;11.302;2024-01-15T00:10:15;62.42;;;39.40;;
40314;SDS011;26021;45.640;11.302;2024-01-15T00:12:40;69.10;;;43.08;;
40314;SDS011;26021;45.640;11.302;2024-01-15T00:15:06;62.80;;;39.38;;
40314;SDS011;26021;45.640;11.302;2024-01-15T00:17:31;66.78;;;40.92;;
40314;SDS011;26021;45.640;11.302;2024-01-15T00:19:57;61.03;;;38.70;;
40314;SDS011;26021;45.640;11.302;2024-01-15T00:22:24;61.65;;;38.38;;
40314;SDS011;26021;45.640;11.302;2024-01-15T00:24:51;61.72;;;39.20;;
40314;SDS011;26021;45.640;11.302;2024-01-15T00:27:16;58.03;;;36.45;;
40314;SDS011;26021;45.640;11.302;2024-01-15T00:29:42;59.13;;;38.10;;
40314;SDS011;26021;45.640;11.302;2024-01-15T00:32:07;59.90;;;36.72;;
40314;SDS011;26021;45.640;11.302;2024-01-15T00:34:32;59.47;;;36.80;;
40314;SDS011;26021;45.640;11.302;2024-01-15T00:36:58;61.38;;;37.25;;
40314;SDS011;26021;45.640;11.302;2024-01-15T00:39:23;58.42;;;36.80;;
40314;SDS011;26021;45.640;11.302;2024-01-15T00:41:49;58.67;;;36.17;;
40314;SDS011;26021;45.640;11.302;2024-01-15T00:44:14;57.78;;;35.33;;
40314;SDS011;26021;45.640;11.302;2024-01-15T00:46:43;56.83;;;36.50;;
40314;SDS011;26021;45.640;11.302;2024-01-15T00:49:10;59.28;;;36.55;;
40314;SDS011;26021;45.640;11.302;2024-01-15T00:51:36;62.30;;;37.72;;
40314;SDS011;26021;45.640;11.302;2024-01-15T00:54:02;63.83;;;39.30;;
40314;SDS011;26021;45.640;11.302;2024-01-15T00:56:27;61.90;;;39.03;;
40314;SDS011;26021;45.640;11.302;2024-01-15T00:58:53;62.38;;;39.90;;
40314;SDS011;26021;45.640;11.302;2024-01-15T01:01:18;62.85;;;39.33;;
40314;SDS011;26021;45.640;11.302;2024-01-15T01:03:43;60.13;;;38.47;;
40314;SDS011;26021;45.640;11.302;2024-01-15T01:06:09;60.70;;;38.58;;
40314;SDS011;26021;45.640;11.302;2024-01-15T01:08:34;61.10;;;39.25;;
40314;SDS011;26021;45.640;11.302;2024-01-15T01:11:00;62.67;;;38.67;;
40314;SDS011;26021;45.640;11.302;2024-01-15T01:13:25;63.97;;;38.22;;
40314;SDS011;26021;45.640;11.302;2024-01-15T01:15:51;64.18;;;39.25;;
40314;SDS011;26021;45.640;11.302;2024-01-15T01:18:16;65.05;;;37.95;;
40314;SDS011;26021;45.640;11.302;2024-01-15T01:20:41;64.47;;;39.50;;
40314;SDS011;26021;45.640;11.302;2024-01-15T01:23:07;63.83;;;38.15;;
40314;SDS011;26021;45.640;11.302;2024-01-15T01:25:32;57.05;;;35.83;;
40314;SDS011;26021;45.640;11.302;2024-01-15T01:27:58;61.58;;;38.22;;
40314;SDS011;26021;45.640;11.302;2024-01-15T01:30:23;60.10;;;36.67;;
40314;SDS011;26021;45.640;11.302;2024-01-15T01:32:48;57.88;;;37.08;;
40314;SDS011;26021;45.640;11.302;2024-01-15T01:35:14;56.85;;;37.42;;
40314;SDS011;26021;45.640;11.302;2024-01-15T01:37:39;57.88;;;37.17;;
40314;SDS011;26021;45.640;11.302;2024-01-15T01:40:05;51.80;;;34.70;;
40314;SDS011;26021;45.640;11.302;2024-01-15T01:42:31;61.22;;;37.22;;
40314;SDS011;26021;45.640;11.302;2024-01-15T01:44:56;55.90;;;35.85;;
40314;SDS011;26021;45.640;11.302;2024-01-15T01:47:22;54.05;;;34.22;;
40314;SDS011;26021;45.640;11.302;2024-01-15T01:49:48;50.72;;;32.72;;
40314;SDS011;26021;45.640;11.302;2024-01-15T01:52:13;56.90;;;35.28;;
40314;SDS011;26021;45.640;11.302;2024-01-15T01:54:39;57.97;;;36.15;;
40314;SDS011;26021;45.640;11.302;2024-01-15T01:57:05;58.53;;;36.08;;
40314;SDS011;26021;45.640;11.302;2024-01-15T01:59:32;56.75;;;34.85;;
40314;SDS011;26021;45.640;11.302;2024-01-15T02:02:00;52.45;;;34.05;;
40314;SDS011;26021;45.640;11.302;2024-01-15T02:04:28;52.88;;;33.63;;
40314;SDS011;26021;45.640;11.302;2024-01-15T02:06:55;52.05;;;34.92;;
40314;SDS011;26021;45.640;11.302;2024-01-15T02:09:20;55.50;;;34.95;;
40314;SDS011;26021;45.640;11.302;2024-01-15T02:11:46;56.65;;;34.45;;
40314;SDS011;26021;45.640;11.302;2024-01-15T02:14:12;51.90;;;33.92;;
40314;SDS011;26021;45.640;11.302;2024-01-15T02:16:38;54.67;;;34.30;;
40314;SDS011;26021;45.640;11.302;2024-01-15T02:19:04;50.00;;;33.03;;
40314;SDS011;26021;45.640;11.302;2024-01-15T02:21:30;56.60;;;34.75;;
40314;SDS011;26021;45.640;11.302;2024-01-15T02:23:56;50.45;;;32.00;;
40314;SDS011;26021;45.640;11.302;2024-01-15T02:26:22;49.55;;;30.88;;
40314;SDS011;26021;45.640;11.302;2024-01-15T02:28:48;54.28;;;32.92;;
40314;SDS011;26021;45.640;11.302;2024-01-15T02:31:14;54.75;;;32.83;;
40314;SDS011;26021;45.640;11.302;2024-01-15T02:33:39;50.10;;;31.35;;
40314;SDS011;26021;45.640;11.302;2024-01-15T02:36:06;53.45;;;33.97;;
40314;SDS011;26021;45.640;11.302;2024-01-15T02:38:32;53.60;;;33.05;;
40314;SDS011;26021;45.640;11.302;2024-01-15T02:40:57;52.63;;;32.42;;
40314;SDS011;26021;45.640;11.302;2024-01-15T02:43:23;51.78;;;31.88;;
40314;SDS011;26021;45.640;11.302;2024-01-15T02:45:49;51.67;;;31.30;;
40314;SDS011;26021;45.640;11.302;2024-01-15T02:48:14;50.53;;;30.58;;
40314;SDS011;26021;45.640;11.302;2024-01-15T02:50:39;47.88;;;30.60;;
40314;SDS011;26021;45.640;11.302;2024-01-15T02:53:05;51.83;;;31.67;;
40314;SDS011;26021;45.640;11.302;2024-01-15T02:55:30;52.60;;;32.30;;
40314;SDS011;26021;45.640;11.302;2024-01-15T02:57:56;49.40;;;31.80;;
40314;SDS011;26021;45.640;11.302;2024-01-15T03:00:21;51.15;;;31.27;;
40314;SDS011;26021;45.640;11.302;2024-01-15T03:02:47;50.38;;;30.67;;
40314;SDS011;26021;45.640;11.302;2024-01-15T03:05:15;48.55;;;30.80;;
40314;SDS011;26021;45.640;11.302;2024-01-15T03:07:40;53.08;;;31.35;;
40314;SDS011;26021;45.640;11.302;2024-01-15T03:10:06;50.13;;;31.33;;
40314;SDS011;26021;45.640;11.302;2024-01-15T03:12:32;55.40;;;30.48;;
40314;SDS011;26021;45.640;11.302;2024-01-15T03:14:57;50.10;;;30.83;;
40314;SDS011;26021;45.640;11.302;2024-01-15T03:17:23;49.60;;;31.23;;
40314;SDS011;26021;45.640;11.302;2024-01-15T03:19:48;56.25;;;34.38;;
40314;SDS011;26021;45.640;11.302;2024-01-15T03:22:15;50.00;;;32.03;;
40314;SDS011;26021;45.640;11.302;2024-01-15T03:24:40;52.65;;;33.47;;
40314;SDS011;26021;45.640;11.302;2024-01-15T03:27:06;50.53;;;29.70;;
40314;SDS011;26021;45.640;11.302;2024-01-15T03:29:31;50.53;;;30.00;;
40314;SDS011;26021;45.640;11.302;2024-01-15T03:31:57;48.30;;;30.77;;
40314;SDS011;26021;45.640;11.302;2024-01-15T03:34:22;49.88;;;30.40;;
40314;SDS011;26021;45.640;11.302;2024-01-15T03:36:47;50.72;;;30.23;;
40314;SDS011;26021;45.640;11.302;2024-01-15T03:39:13;50.55;;;29.55;;
40314;SDS011;26021;45.640;11.302;2024-01-15T03:41:38;49.78;;;30.45;;
40314;SDS011;26021;45.640;11.302;2024-01-15T03:44:03;51.45;;;30.48;;
40314;SDS011;26021;45.640;11.302;2024-01-15T03:46:29;49.03;;;30.92;;
40314;SDS011;26021;45.640;11.302;2024-01-15T03:48:54;49.88;;;30.80;;
40314;SDS011;26021;45.640;11.302;2024-01-15T03:51:20;48.13;;;29.50;;
40314;SDS011;26021;45.640;11.302;2024-01-15T03:53:46;52.90;;;31.20;;
40314;SDS011;26021;45.640;11.302;2024-01-15T03:56:11;51.10;;;32.13;;
40314;SDS011;26021;45.640;11.302;2024-01-15T03:58:37;54.38;;;32.97;;
40314;SDS011;26021;45.640;11.302;2024-01-15T04:01:03;49.95;;;31.77;;
40314;SDS011;26021;45.640;11.302;2024-01-15T04:03:28;52.15;;;31.85;;
40314;SDS011;26021;45.640;11.302;2024-01-15T04:05:54;53.15;;;32.08;;
40314;SDS011;26021;45.640;11.302;2024-01-15T04:08:19;47.08;;;30.42;;
40314;SDS011;26021;45.640;11.302;2024-01-15T04:10:45;51.15;;;31.05;;
40314;SDS011;26021;45.640;11.302;2024-01-15T04:13:11;48.63;;;30.38;;
40314;SDS011;26021;45.640;11.302;2024-01-15T04:15:36;51.08;;;31.63;;
40314;SDS011;26021;45.640;11.302;2024-01-15T04:18:02;45.28;;;28.40;;
40314;SDS011;26021;45.640;11.302;2024-01-15T04:20:28;47.97;;;30.00;;
40314;SDS011;26021;45.640;11.302;2024-01-15T04:22:54;57.20;;;33.72;;
40314;SDS011;26021;45.640;11.302;2024-01-15T04:25:19;55.92;;;35.15;;
40314;SDS011;26021;45.640;11.302;2024-01-15T04:27:44;55.30;;;33.15;;
40314;SDS011;26021;45.640;11.302;2024-01-15T04:30:10;52.28;;;32.05;;
40314;SDS011;26021;45.640;11.302;2024-01-15T04:32:36;55.50;;;33.38;;
40314;SDS011;26021;45.640;11.302;2024-01-15T04:35:20;53.47;;;32.28;;
40314;SDS011;26021;45.640;11.302;2024-01-15T04:37:45;56.85;;;33.25;;
40314;SDS011;26021;45.640;11.302;2024-01-15T04:40:11;52.47;;;32.40;;
40314;SDS011;26021;45.640;11.302;2024-01-15T04:42:36;56.03;;;33.53;;
40314;SDS011;26021;45.640;11.302;2024-01-15T04:45:02;56.92;;;35.33;;
40314;SDS011;26021;45.640;11.302;2024-01-15T04:47:28;55.30;;;34.10;;
40314;SDS011;26021;45.640;11.302;2024-01-15T04:49:54;56.33;;;35.47;;
40314;SDS011;26021;45.640;11.302;2024-01-15T04:52:19;56.22;;;33.45;;
40314;SDS011;26021;45.640;11.302;2024-01-15T04:54:45;59.60;;;35.83;;
40314;SDS011;26021;45.640;11.302;2024-01-15T04:57:10;58.60;;;36.35;;
40314;SDS011;26021;45.640;11.302;2024-01-15T04:59:35;61.70;;;35.67;;
40314;SDS011;26021;45.640;11.302;2024-01-15T05:02:01;58.30;;;35.70;;
40314;SDS011;26021;45.640;11.302;2024-01-15T05:04:26;60.28;;;35.67;;
40314;SDS011;26021;45.640;11.302;2024-01-15T05:06:52;56.42;;;34.42;;
40314;SDS011;26021;45.640;11.302;2024-01-15T05:09:18;168.05;;;99.30;;
40314;SDS011;26021;45.640;11.302;2024-01-15T05:11:44;60.30;;;35.83;;
40314;SDS011;26021;45.640;11.302;2024-01-15T05:14:09;71.63;;;43.10;;
40314;SDS011;26021;45.640;11.302;2024-01-15T05:16:35;67.95;;;41.53;;
40314;SDS011;26021;45.640;11.302;2024-01-15T05:19:02;58.17;;;35.85;;
40314;SDS011;26021;45.640;11.302;2024-01-15T05:21:28;61.38;;;36.63;;
40314;SDS011;26021;45.640;11.302;2024-01-15T05:23:53;62.33;;;36.58;;
40314;SDS011;26021;45.640;11.302;2024-01-15T05:26:19;58.08;;;36.67;;
40314;SDS011;26021;45.640;11.302;2024-01-15T05:28:44;60.80;;;36.40;;
40314;SDS011;26021;45.640;11.302;2024-01-15T05:31:10;57.45;;;35.08;;
40314;SDS011;26021;45.640;11.302;2024-01-15T05:33:36;69.97;;;39.72;;
40314;SDS011;26021;45.640;11.302;2024-01-15T05:36:02;77.93;;;46.55;;
40314;SDS011;26021;45.640;11.302;2024-01-15T05:38:27;61.90;;;37.13;;
40314;SDS011;26021;45.640;11.302;2024-01-15T05:40:53;63.70;;;38.83;;
40314;SDS011;26021;45.640;11.302;2024-01-15T05:43:18;72.72;;;42.67;;
40314;SDS011;26021;45.640;11.302;2024-01-15T05:45:44;74.57;;;43.80;;
40314;SDS011;26021;45.640;11.302;2024-01-15T05:48:10;81.97;;;44.50;;
40314;SDS011;26021;45.640;11.302;2024-01-15T05:50:35;74.47;;;41.72;;
40314;SDS011;26021;45.640;11.302;2024-01-15T05:53:01;66.80;;;38.72;;
40314;SDS011;26021;45.640;11.302;2024-01-15T05:55:27;64.55;;;39.35;;
40314;SDS011;26021;45.640;11.302;2024-01-15T05:57:53;66.32;;;37.15;;
40314;SDS011;26021;45.640;11.302;2024-01-15T06:00:18;60.35;;;35.47;;
40314;SDS011;26021;45.640;11.302;2024-01-15T06:02:44;63.53;;;36.58;;
40314;SDS011;26021;45.640;11.302;2024-01-15T06:05:09;59.08;;;34.38;;
40314;SDS011;26021;45.640;11.302;2024-01-15T06:07:35;58.92;;;36.30;;
40314;SDS011;26021;45.640;11.302;2024-01-15T06:10:01;60.38;;;34.40;;
40314;SDS011;26021;45.640;11.302;2024-01-15T06:12:27;59.58;;;36.22;;
40314;SDS011;26021;45.640;11.302;2024-01-15T06:14:53;60.47;;;34.90;;
40314;SDS011;26021;45.640;11.302;2024-01-15T06:17:18;61.25;;;35.47;;
40314;SDS011;26021;45.640;11.302;2024-01-15T06:19:44;59.17;;;34.30;;
40314;SDS011;26021;45.640;11.302;2024-01-15T06:22:09;59.58;;;35.28;;
40314;SDS011;26021;45.640;11.302;2024-01-15T06:24:34;67.30;;;36.83;;
40314;SDS011;26021;45.640;11.302;2024-01-15T06:27:00;66.35;;;37.60;;
40314;SDS011;26021;45.640;11.302;2024-01-15T06:29:26;59.55;;;36.55;;
40314;SDS011;26021;45.640;11.302;2024-01-15T06:31:54;61.50;;;36.17;;
40314;SDS011;26021;45.640;11.302;2024-01-15T06:34:20;64.15;;;37.67;;
40314;SDS011;26021;45.640;11.302;2024-01-15T06:36:45;60.05;;;36.72;;
40314;SDS011;26021;45.640;11.302;2024-01-15T06:39:11;63.83;;;36.72;;
40314;SDS011;26021;45.640;11.302;2024-01-15T06:41:37;65.70;;;38.60;;
40314;SDS011;26021;45.640;11.302;2024-01-15T06:44:08;61.97;;;38.10;;
40314;SDS011;26021;45.640;11.302;2024-01-15T06:46:35;64.35;;;38.05;;
40314;SDS011;26021;45.640;11.302;2024-01-15T06:49:01;65.00;;;38.80;;
40314;SDS011;26021;45.640;11.302;2024-01-15T06:51:26;67.05;;;39.85;;
40314;SDS011;26021;45.640;11.302;2024-01-15T06:53:52;62.92;;;36.85;;
40314;SDS011;26021;45.640;11.302;2024-01-15T06:56:17;59.75;;;34.63;;
40314;SDS011;26021;45.640;11.302;2024-01-15T06:58:43;62.15;;;36.75;;
40314;SDS011;26021;45.640;11.302;2024-01-15T07:01:08;55.45;;;34.25;;
40314;SDS011;26021;45.640;11.302;2024-01-15T07:03:33;56.45;;;34.22;;
40314;SDS011;26021;45.640;11.302;2024-01-15T07:05:59;59.83;;;37.05;;
40314;SDS011;26021;45.640;11.302;2024-01-15T07:08:25;66.60;;;39.05;;
40314;SDS011;26021;45.640;11.302;2024-01-15T07:10:50;68.18;;;39.92;;
40314;SDS011;26021;45.640;11.302;2024-01-15T07:13:15;76.35;;;43.22;;
40314;SDS011;26021;45.640;11.302;2024-01-15T07:15:41;65.47;;;39.08;;
40314;SDS011;26021;45.640;11.302;2024-01-15T07:18:06;62.17;;;36.95;;
40314;SDS011;26021;45.640;11.302;2024-01-15T07:20:32;56.38;;;35.47;;
40314;SDS011;26021;45.640;11.302;2024-01-15T07:22:57;63.75;;;38.35;;
40314;SDS011;26021;45.640;11.302;2024-01-15T07:25:22;68.90;;;39.70;;
40314;SDS011;26021;45.640;11.302;2024-01-15T07:27:48;65.70;;;39.03;;
40314;SDS011;26021;45.640;11.302;2024-01-15T07:30:13;55.63;;;35.35;;
40314;SDS011;26021;45.640;11.302;2024-01-15T07:32:39;68.65;;;40.45;;
40314;SDS011;26021;45.640;11.302;2024-01-15T07:35:05;64.45;;;38.80;;
40314;SDS011;26021;45.640;11.302;2024-01-15T07:37:31;73.20;;;42.53;;
40314;SDS011;26021;45.640;11.302;2024-01-15T07:39:56;54.80;;;33.88;;
40314;SDS011;26021;45.640;11.302;2024-01-15T07:42:22;59.35;;;36.45;;
40314;SDS011;26021;45.640;11.302;2024-01-15T07:44:47;68.82;;;41.20;;
40314;SDS011;26021;45.640;11.302;2024-01-15T07:47:13;58.35;;;35.03;;
40314;SDS011;26021;45.640;11.302;2024-01-15T07:49:38;55.75;;;34.92;;
40314;SDS011;26021;45.640;11.302;2024-01-15T07:52:04;58.53;;;36.95;;
40314;SDS011;26021;45.640;11.302;2024-01-15T07:54:30;58.75;;;34.45;;
40314;SDS011;26021;45.640;11.302;2024-01-15T07:56:57;58.90;;;35.15;;
40314;SDS011;26021;45.640;11.302;2024-01-15T07:59:23;60.05;;;37.42;;
40314;SDS011;26021;45.640;11.302;2024-01-15T08:01:49;59.90;;;37.80;;
40314;SDS011;26021;45.640;11.302;2024-01-15T08:04:16;56.42;;;35.72;;
40314;SDS011;26021;45.640;11.302;2024-01-15T08:06:42;62.42;;;36.90;;
40314;SDS011;26021;45.640;11.302;2024-01-15T08:09:07;60.75;;;36.47;;
40314;SDS011;26021;45.640;11.302;2024-01-15T08:11:33;61.88;;;38.20;;
40314;SDS011;26021;45.640;11.302;2024-01-15T08:13:59;56.75;;;38.00;;
40314;SDS011;26021;45.640;11.302;2024-01-15T08:16:25;62.10;;;39.42;;
40314;SDS011;26021;45.640;11.302;2024-01-15T08:18:50;81.10;;;51.50;;
40314;SDS011;26021;45.640;11.302;2024-01-15T08:21:16;62.00;;;38.90;;
40314;SDS011;26021;45.640;11.302;2024-01-15T08:23:41;62.30;;;36.75;;
40314;SDS011;26021;45.640;11.302;2024-01-15T08:26:07;57.15;;;35.28;;
40314;SDS011;26021;45.640;11.302;2024-01-15T08:28:34;54.58;;;34.72;;
40314;SDS011;26021;45.640;11.302;2024-01-15T08:30:59;55.38;;;35.50;;
40314;SDS011;26021;45.640;11.302;2024-01-15T08:33:24;58.00;;;36.50;;
40314;SDS011;26021;45.640;11.302;2024-01-15T08:35:50;60.92;;;37.17;;
40314;SDS011;26021;45.640;11.302;2024-01-15T08:38:15;56.10;;;35.63;;
40314;SDS011;26021;45.640;11.302;2024-01-15T08:40:41;60.58;;;36.38;;
40314;SDS011;26021;45.640;11.302;2024-01-15T08:43:06;60.75;;;36.25;;
40314;SDS011;26021;45.640;11.302;2024-01-15T08:45:32;58.53;;;36.45;;
40314;SDS011;26021;45.640;11.302;2024-01-15T08:47:58;61.40;;;37.97;;
40314;SDS011;26021;45.640;11.302;2024-01-15T08:50:24;58.83;;;37.67;;
40314;SDS011;26021;45.640;11.302;2024-01-15T08:52:49;52.88;;;35.00;;
40314;SDS011;26021;45.640;11.302;2024-01-15T08:55:15;52.70;;;34.53;;
40314;SDS011;26021;45.640;11.302;2024-01-15T08:57:40;55.53;;;35.92;;
40314;SDS011;26021;45.640;11.302;2024-01-15T09:00:06;54.70;;;35.03;;
40314;SDS011;26021;45.640;11.302;2024-01-15T09:02:33;52.45;;;35.60;;
40314;SDS011;26021;45.640;11.302;2024-01-15T09:05:00;55.50;;;34.63;;
40314;SDS011;26021;45.640;11.302;2024-01-15T09:07:25;53.75;;;34.83;;
40314;SDS011;26021;45.640;11.302;2024-01-15T09:09:52;51.15;;;34.40;;
40314;SDS011;26021;45.640;11.302;2024-01-15T09:12:18;50.97;;;33.63;;
40314;SDS011;26021;45.640;11.302;2024-01-15T09:14:46;56.15;;;36.55;;
40314;SDS011;26021;45.640;11.302;2024-01-15T09:17:12;49.83;;;34.88;;
40314;SDS011;26021;45.640;11.302;2024-01-15T09:19:37;53.03;;;36.17;;
40314;SDS011;26021;45.640;11.302;2024-01-15T09:22:04;53.42;;;36.53;;
40314;SDS011;26021;45.640;11.302;2024-01-15T09:24:30;54.50;;;35.20;;
40314;SDS011;26021;45.640;11.302;2024-01-15T09:26:56;50.85;;;35.33;;
40314;SDS011;26021;45.640;11.302;2024-01-15T09:29:21;55.03;;;35.40;;
40314;SDS011;26021;45.640;11.302;2024-01-15T09:31:48;58.17;;;36.20;;
40314;SDS011;26021;45.640;11.302;2024-01-15T09:34:15;49.42;;;33.95;;
40314;SDS011;26021;45.640;11.302;2024-01-15T09:36:41;50.03;;;33.28;;
40314;SDS011;26021;45.640;11.302;2024-01-15T09:39:08;52.22;;;33.40;;
40314;SDS011;26021;45.640;11.302;2024-01-15T09:41:37;51.80;;;34.63;;
40314;SDS011;26021;45.640;11.302;2024-01-15T09:44:03;46.58;;;32.80;;
40314;SDS011;26021;45.640;11.302;2024-01-15T09:46:29;49.75;;;33.85;;
40314;SDS011;26021;45.640;11.302;2024-01-15T09:48:57;48.55;;;32.63;;
40314;SDS011;26021;45.640;11.302;2024-01-15T09:51:23;49.17;;;33.70;;
40314;SDS011;26021;45.640;11.302;2024-01-15T09:53:50;51.35;;;33.83;;
40314;SDS011;26021;45.640;11.302;2024-01-15T09:56:15;54.80;;;35.88;;
40314;SDS011;26021;45.640;11.302;2024-01-15T09:58:41;49.45;;;31.85;;
40314;SDS011;26021;45.640;11.302;2024-01-15T10:01:07;46.28;;;32.22;;
40314;SDS011;26021;45.640;11.302;2024-01-15T10:03:33;51.42;;;32.92;;
40314;SDS011;26021;45.640;11.302;2024-01-15T10:05:59;52.13;;;33.83;;
40314;SDS011;26021;45.640;11.302;2024-01-15T10:08:25;55.00;;;33.22;;
40314;SDS011;26021;45.640;11.302;2024-01-15T10:10:51;52.05;;;33.97;;
40314;SDS011;26021;45.640;11.302;2024-01-15T10:13:17;54.85;;;35.42;;
40314;SDS011;26021;45.640;11.302;2024-01-15T10:15:45;62.72;;;37.08;;
40314;SDS011;26021;45.640;11.302;2024-01-15T10:18:14;55.10;;;37.92;;
40314;SDS011;26021;45.640;11.302;2024-01-15T10:20:40;57.25;;;37.72;;
40314;SDS011;26021;45.640;11.302;2024-01-15T10:23:05;56.97;;;36.95;;
40314;SDS011;26021;45.640;11.302;2024-01-15T10:25:31;50.40;;;34.30;;
40314;SDS011;26021;45.640;11.302;2024-01-15T10:28:00;53.78;;;36.20;;
40314;SDS011;26021;45.640;11.302;2024-01-15T10:30:27;55.97;;;37.55;;
40314;SDS011;26021;45.640;11.302;2024-01-15T10:33:02;60.25;;;39.05;;
40314;SDS011;26021;45.640;11.302;2024-01-15T10:37:54;59.08;;;38.80;;
40314;SDS011;26021;45.640;11.302;2024-01-15T10:40:19;61.03;;;40.67;;
40314;SDS011;26021;45.640;11.302;2024-01-15T10:42:45;60.83;;;38.97;;
40314;SDS011;26021;45.640;11.302;2024-01-15T10:45:12;62.92;;;39.95;;
40314;SDS011;26021;45.640;11.302;2024-01-15T10:47:41;59.72;;;39.25;;
40314;SDS011;26021;45.640;11.302;2024-01-15T10:50:07;58.80;;;37.50;;
40314;SDS011;26021;45.640;11.302;2024-01-15T10:52:34;56.97;;;37.83;;
40314;SDS011;26021;45.640;11.302;2024-01-15T10:55:00;58.28;;;39.92;;
40314;SDS011;26021;45.640;11.302;2024-01-15T10:57:28;64.35;;;41.38;;
40314;SDS011;26021;45.640;11.302;2024-01-15T10:59:54;63.22;;;40.53;;
40314;SDS011;26021;45.640;11.302;2024-01-15T11:02:20;60.65;;;38.63;;
40314;SDS011;26021;45.640;11.302;2024-01-15T11:04:46;56.33;;;36.72;;
40314;SDS011;26021;45.640;11.302;2024-01-15T11:07:11;55.47;;;36.50;;
40314;SDS011;26021;45.640;11.302;2024-01-15T11:09:38;57.13;;;36.60;;
40314;SDS011;26021;45.640;11.302;2024-01-15T11:12:09;57.90;;;36.30;;
40314;SDS011;26021;45.640;11.302;2024-01-15T11:14:40;52.95;;;36.22;;
40314;SDS011;26021;45.640;11.302;2024-01-15T11:17:09;57.67;;;37.03;;
40314;SDS011;26021;45.640;11.302;2024-01-15T11:22:09;61.17;;;39.72;;
40314;SDS011;26021;45.640;11.302;2024-01-15T11:24:55;68.63;;;44.75;;
40314;SDS011;26021;45.640;11.302;2024-01-15T11:27:49;57.90;;;39.53;;
40314;SDS011;26021;45.640;11.302;2024-01-15T11:30:20;60.03;;;37.17;;
40314;SDS011;26021;45.640;11.302;2024-01-15T11:32:50;58.92;;;38.55;;
40314;SDS011;26021;45.640;11.302;2024-01-15T11:35:16;59.75;;;39.53;;
40314;SDS011;26021;45.640;11.302;2024-01-15T11:42:57;65.20;;;41.75;;
40314;SDS011;26021;45.640;11.302;2024-01-15T11:45:23;60.42;;;38.58;;
40314;SDS011;26021;45.640;11.302;2024-01-15T11:50:48;56.83;;;39.20;;
40314;SDS011;26021;45.640;11.302;2024-01-15T11:56:16;57.22;;;37.40;;
40314;SDS011;26021;45.640;11.302;2024-01-15T11:58:42;56.95;;;37.40;;
40314;SDS011;26021;45.640;11.302;2024-01-15T12:01:08;54.25;;;37.03;;
40314;SDS011;26021;45.640;11.302;2024-01-15T12:03:35;55.38;;;36.75;;
40314;SDS011;26021;45.640;11.302;2024-01-15T12:06:01;56.92;;;37.53;;
40314;SDS011;26021;45.640;11.302;2024-01-15T12:08:27;51.88;;;36.83;;
40314;SDS011;26021;45.640;11.302;2024-01-15T12:10:52;55.45;;;38.35;;
40314;SDS011;26021;45.640;11.302;2024-01-15T12:13:18;60.58;;;38.83;;
40314;SDS011;26021;45.640;11.302;2024-01-15T12:15:45;51.63;;;35.92;;
40314;SDS011;26021;45.640;11.302;2024-01-15T12:18:13;53.78;;;35.40;;
40314;SDS011;26021;45.640;11.302;2024-01-15T12:20:40;58.95;;;40.58;;
40314;SDS011;26021;45.640;11.302;2024-01-15T12:23:06;52.92;;;35.33;;
40314;SDS011;26021;45.640;11.302;2024-01-15T12:25:32;60.45;;;38.90;;
40314;SDS011;26021;45.640;11.302;2024-01-15T12:27:59;59.53;;;40.20;;
40314;SDS011;26021;45.640;11.302;2024-01-15T12:30:28;69.07;;;42.30;;
40314;SDS011;26021;45.640;11.302;2024-01-15T12:33:17;64.68;;;41.83;;
40314;SDS011;26021;45.640;11.302;2024-01-15T12:35:44;62.45;;;41.97;;
40314;SDS011;26021;45.640;11.302;2024-01-15T12:38:10;62.13;;;41.60;;
40314;SDS011;26021;45.640;11.302;2024-01-15T12:40:36;57.72;;;39.83;;
40314;SDS011;26021;45.640;11.302;2024-01-15T12:43:02;64.30;;;41.60;;
40314;SDS011;26021;45.640;11.302;2024-01-15T12:45:27;62.67;;;42.78;;
40314;SDS011;26021;45.640;11.302;2024-01-15T12:47:53;65.18;;;43.72;;
40314;SDS011;26021;45.640;11.302;2024-01-15T12:50:19;62.75;;;41.83;;
40314;SDS011;26021;45.640;11.302;2024-01-15T12:52:44;59.00;;;41.60;;
40314;SDS011;26021;45.640;11.302;2024-01-15T12:55:10;67.72;;;43.85;;
40314;SDS011;26021;45.640;11.302;2024-01-15T12:57:37;64.72;;;42.50;;
40314;SDS011;26021;45.640;11.302;2024-01-15T13:00:03;63.55;;;43.50;;
40314;SDS011;26021;45.640;11.302;2024-01-15T13:02:36;63.78;;;44.40;;
40314;SDS011;26021;45.640;11.302;2024-01-15T13:05:03;65.13;;;45.13;;
40314;SDS011;26021;45.640;11.302;2024-01-15T13:07:29;65.97;;;45.90;;
40314;SDS011;26021;45.640;11.302;2024-01-15T13:09:55;72.32;;;46.58;;
40314;SDS011;26021;45.640;11.302;2024-01-15T13:12:20;68.90;;;45.78;;
40314;SDS011;26021;45.640;11.302;2024-01-15T13:14:46;67.50;;;46.88;;
40314;SDS011;26021;45.640;11.302;2024-01-15T13:17:12;69.60;;;46.50;;
40314;SDS011;26021;45.640;11.302;2024-01-15T13:19:39;70.68;;;47.60;;
40314;SDS011;26021;45.640;11.302;2024-01-15T13:22:05;70.78;;;45.75;;
40314;SDS011;26021;45.640;11.302;2024-01-15T13:24:32;71.10;;;47.90;;
40314;SDS011;26021;45.640;11.302;2024-01-15T13:26:57;72.47;;;50.10;;
40314;SDS011;26021;45.640;11.302;2024-01-15T13:29:23;75.70;;;50.70;;
40314;SDS011;26021;45.640;11.302;2024-01-15T13:31:48;73.18;;;49.80;;
40314;SDS011;26021;45.640;11.302;2024-01-15T13:34:14;75.32;;;49.75;;
40314;SDS011;26021;45.640;11.302;2024-01-15T13:36:39;77.28;;;50.35;;
40314;SDS011;26021;45.640;11.302;2024-01-15T13:39:06;77.55;;;53.92;;
40314;SDS011;26021;45.640;11.302;2024-01-15T13:41:34;77.68;;;50.80;;
40314;SDS011;26021;45.640;11.302;2024-01-15T13:44:00;77.82;;;51.30;;
40314;SDS011;26021;45.640;11.302;2024-01-15T13:46:26;79.97;;;52.00;;
40314;SDS011;26021;45.640;11.302;2024-01-15T13:49:00;78.57;;;53.05;;
40314;SDS011;26021;45.640;11.302;2024-01-15T13:51:27;72.05;;;50.72;;
40314;SDS011;26021;45.640;11.302;2024-01-15T13:53:52;80.03;;;53.90;;
40314;SDS011;26021;45.640;11.302;2024-01-15T13:56:18;81.05;;;55.58;;
40314;SDS011;26021;45.640;11.302;2024-01-15T13:58:43;83.10;;;56.03;;
40314;SDS011;26021;45.640;11.302;2024-01-15T14:01:09;85.90;;;54.72;;
40314;SDS011;26021;45.640;11.302;2024-01-15T14:03:35;79.40;;;54.92;;
40314;SDS011;26021;45.640;11.302;2024-01-15T14:06:01;75.30;;;54.25;;
40314;SDS011;26021;45.640;11.302;2024-01-15T14:08:33;77.95;;;51.60;;
40314;SDS011;26021;45.640;11.302;2024-01-15T14:10:59;75.82;;;52.22;;
40314;SDS011;26021;45.640;11.302;2024-01-15T14:13:25;79.22;;;52.88;;
40314;SDS011;26021;45.640;11.302;2024-01-15T14:15:50;79.85;;;54.58;;
40314;SDS011;26021;45.640;11.302;2024-01-15T14:18:16;80.75;;;54.70;;